Time;durP1;ratioP1;P1;durP2;ratioP2;P2;SDS_P1;SDS_P2;PMS_P1;PMS_P2;Temp;Humidity;BMP_temperature;BMP_pressure;BME280_temperature;BME280_humidity;BME280_pressure;Samples;Min_cycle;Max_cycle;Signal;HPM_P1;HPM_P2
2022/12/30 00:01:57;;;;;;;16.88;4.68;;;7.20;99.90;;;;;;7368152;19;20370;-48
2022/12/30 00:04:23;;;;;;;22.98;4.95;;;7.20;99.90;;;;;;7370389;19;20019;-50
2022/12/30 00:06:50;;;;;;;23.23;5.47;;;7.20;99.90;;;;;;7368462;19;20015;-52
2022/12/30 00:09:16;;;;;;;25.67;4.90;;;7.10;99.90;;;;;;7369904;19;20018;-50
2022/12/30 00:11:43;;;;;;;20.73;4.47;;;7.10;99.90;;;;;;7371415;19;20818;-51
2022/12/30 00:33:24;;;;;;;28.33;5.57;;;7.00;99.90;;;;;;7363543;19;20018;-49
2022/12/30 00:35:50;;;;;;;21.63;5.68;;;7.00;99.90;;;;;;7360069;19;20603;-51
2022/12/30 00:38:16;;;;;;;19.58;4.30;;;6.90;99.90;;;;;;7357162;19;20459;-52
2022/12/30 00:43:07;;;;;;;31.77;6.13;;;6.90;99.90;;;;;;7365799;19;20026;-51
2022/12/30 00:43:29;;;;;;;21.67;4.45;;;6.80;99.90;;;;;;7368814;19;20026;-50
2022/12/30 00:45:58;;;;;;;21.98;5.43;;;6.70;99.90;;;;;;7367884;19;20082;-51
2022/12/30 00:56:44;;;;;;;28.52;5.00;;;6.80;99.90;;;;;;7367972;19;20385;-47
2022/12/30 00:59:13;;;;;;;15.73;5.03;;;6.80;99.90;;;;;;7369949;19;20058;-47
2022/12/30 01:01:41;;;;;;;20.52;3.92;;;6.80;99.90;;;;;;7370463;19;20039;-49
2022/12/30 01:04:07;;;;;;;22.90;4.38;;;6.80;99.90;;;;;;7372363;19;20361;-48
2022/12/30 01:06:37;;;;;;;20.73;3.95;;;6.80;99.90;;;;;;7374040;19;20039;-50
2022/12/30 01:09:04;;;;;;;19.05;4.88;;;6.80;99.90;;;;;;7369878;19;20367;-47
2022/12/30 01:11:35;;;;;;;20.30;4.38;;;6.70;99.90;;;;;;7370653;19;20018;-56
2022/12/30 01:14:02;;;;;;;26.30;5.18;;;6.70;99.90;;;;;;7371298;19;20042;-49
2022/12/30 01:16:33;;;;;;;23.17;4.30;;;6.70;99.90;;;;;;7365437;19;20472;-57
2022/12/30 01:19:00;;;;;;;16.90;4.32;;;6.70;99.90;;;;;;7371913;19;20370;-57
2022/12/30 01:21:27;;;;;;;23.13;4.60;;;6.70;99.90;;;;;;7372181;19;20037;-57
2022/12/30 01:23:53;;;;;;;22.25;4.32;;;6.70;99.90;;;;;;7369060;19;20442;-50
2022/12/30 01:26:19;;;;;;;23.08;4.40;;;6.70;99.90;;;;;;7373084;19;20488;-50
2022/12/30 01:28:46;;;;;;;16.80;4.03;;;6.70;99.90;;;;;;7372890;19;20602;-51
2022/12/30 01:31:12;;;;;;;16.77;4.03;;;6.70;99.90;;;;;;7376813;19;20390;-50
2022/12/30 01:33:41;;;;;;;21.35;5.22;;;6.60;99.90;;;;;;7379806;19;20015;-50
2022/12/30 01:36:07;;;;;;;18.15;3.90;;;6.60;99.90;;;;;;7377730;19;20022;-50
2022/12/30 01:38:35;;;;;;;19.50;3.95;;;6.70;99.90;;;;;;7372471;19;20130;-48
2022/12/30 01:41:01;;;;;;;19.85;4.78;;;6.70;99.90;;;;;;7378801;19;20391;-47
2022/12/30 01:43:49;;;;;;;18.33;4.72;;;6.70;99.90;;;;;;7377700;19;20358;-47
2022/12/30 01:46:28;;;;;;;26.42;4.32;;;6.70;99.90;;;;;;7374082;19;20372;-47
2022/12/30 01:49:00;;;;;;;23.70;4.60;;;6.60;99.90;;;;;;7374546;19;20662;-47
2022/12/30 01:51:32;;;;;;;19.55;4.25;;;6.70;99.90;;;;;;7379168;19;20019;-48
2022/12/30 01:54:02;;;;;;;20.02;4.30;;;6.60;99.90;;;;;;7376337;19;20018;-48
2022/12/30 01:56:40;;;;;;;19.00;5.00;;;6.70;99.90;;;;;;7374946;19;20018;-47
2022/12/30 01:59:14;;;;;;;22.13;5.03;;;6.70;99.90;;;;;;7376833;19;20018;-49
2022/12/30 02:01:42;;;;;;;21.92;4.55;;;6.60;99.90;;;;;;7372363;19;20022;-57
2022/12/30 02:04:13;;;;;;;19.02;3.75;;;6.60;99.90;;;;;;7377199;19;20338;-57
2022/12/30 02:06:53;;;;;;;22.98;4.50;;;6.70;99.90;;;;;;7372754;19;20023;-57
2022/12/30 02:09:20;;;;;;;16.20;5.25;;;6.60;99.90;;;;;;7372424;19;20022;-46
2022/12/30 02:11:47;;;;;;;30.88;4.78;;;6.60;99.90;;;;;;7374002;19;20047;-50
2022/12/30 02:14:13;;;;;;;14.90;4.35;;;6.60;99.90;;;;;;7378994;19;20031;-57
2022/12/30 02:17:08;;;;;;;20.08;4.50;;;6.50;99.90;;;;;;7374501;19;20361;-50
2022/12/30 02:19:49;;;;;;;21.63;4.53;;;6.40;99.90;;;;;;7372597;19;20022;-49
2022/12/30 02:22:35;;;;;;;24.63;4.90;;;6.50;99.90;;;;;;7377211;19;20041;-49
2022/12/30 02:25:37;;;;;;;18.42;4.70;;;6.40;99.90;;;;;;7377091;19;20014;-47
2022/12/30 02:28:42;;;;;;;18.58;4.72;;;6.40;99.90;;;;;;7375087;19;20496;-52
2022/12/30 02:31:12;;;;;;;22.00;4.75;;;6.40;99.90;;;;;;7377845;19;20055;-47
2022/12/30 02:34:06;;;;;;;21.02;5.57;;;6.40;99.90;;;;;;7378535;19;20098;-48
2022/12/30 02:36:42;;;;;;;18.58;4.25;;;6.30;99.90;;;;;;7374712;19;20015;-50
2022/12/30 02:39:15;;;;;;;22.70;4.75;;;6.40;99.90;;;;;;7368376;19;20053;-50
2022/12/30 02:44:36;;;;;;;22.13;4.07;;;6.30;99.90;;;;;;7376532;19;20481;-47
2022/12/30 02:47:20;;;;;;;18.90;4.80;;;6.30;99.90;;;;;;7376025;19;20122;-50
2022/12/30 02:52:14;;;;;;;19.55;4.00;;;6.30;99.90;;;;;;7373117;19;20023;-48
2022/12/30 02:52:38;;;;;;;23.50;4.45;;;6.30;99.90;;;;;;7378109;19;20844;-50
2022/12/30 02:55:06;;;;;;;18.92;4.05;;;6.20;99.90;;;;;;7376450;19;20510;-50
2022/12/30 02:57:34;;;;;;;22.20;4.20;;;6.20;99.90;;;;;;7374338;19;20018;-49
2022/12/30 03:06:30;;;;;;;25.27;4.30;;;6.10;99.90;;;;;;7371376;19;20053;-49
2022/12/30 03:09:30;;;;;;;20.70;4.45;;;6.00;99.90;;;;;;7373190;19;20474;-53
2022/12/30 03:12:24;;;;;;;21.85;4.35;;;6.10;99.90;;;;;;7371346;19;20764;-47
2022/12/30 03:15:07;;;;;;;19.42;3.65;;;6.00;99.90;;;;;;7374699;19;20014;-50
2022/12/30 03:17:38;;;;;;;28.42;4.15;;;6.00;99.90;;;;;;7372550;19;20581;-49
2022/12/30 03:20:13;;;;;;;21.27;4.18;;;5.90;99.90;;;;;;7371311;19;20090;-50
2022/12/30 03:28:14;;;;;;;19.92;4.55;;;5.80;99.90;;;;;;7374869;19;20830;-49
2022/12/30 03:30:51;;;;;;;23.42;4.82;;;5.80;99.90;;;;;;7373324;19;20024;-49
2022/12/30 03:33:19;;;;;;;18.42;4.82;;;5.80;99.90;;;;;;7376738;19;20037;-57
2022/12/30 03:35:52;;;;;;;19.33;4.75;;;5.80;99.90;;;;;;7372473;19;20039;-57
2022/12/30 03:38:22;;;;;;;23.25;4.63;;;5.70;99.90;;;;;;7370998;19;20086;-57
2022/12/30 03:40:55;;;;;;;21.52;5.07;;;5.70;99.90;;;;;;7371766;19;20041;-47
2022/12/30 03:43:21;;;;;;;21.20;5.15;;;5.60;99.90;;;;;;7372642;19;20019;-56
2022/12/30 03:45:47;;;;;;;19.15;4.95;;;5.50;99.90;;;;;;7369698;19;20035;-56
2022/12/30 03:48:13;;;;;;;19.55;4.18;;;5.50;99.90;;;;;;7372909;19;20029;-56
2022/12/30 03:50:43;;;;;;;18.10;3.83;;;5.50;99.90;;;;;;7371787;19;20018;-50
2022/12/30 03:53:12;;;;;;;26.45;5.60;;;5.50;99.90;;;;;;7373316;19;20044;-56
2022/12/30 03:55:38;;;;;;;20.48;4.93;;;5.40;99.90;;;;;;7368618;19;20018;-57
2022/12/30 03:58:08;;;;;;;18.67;4.20;;;5.40;99.90;;;;;;7374228;19;20032;-57
2022/12/30 04:00:35;;;;;;;14.63;4.05;;;5.30;99.90;;;;;;7368715;19;20376;-50
2022/12/30 04:03:02;;;;;;;19.98;4.75;;;5.30;99.90;;;;;;7373044;19;20418;-48
2022/12/30 04:05:45;;;;;;;17.55;4.43;;;5.30;99.90;;;;;;7365964;19;20022;-57
2022/12/30 04:08:12;;;;;;;23.65;5.03;;;5.30;99.90;;;;;;7375113;19;20049;-57
2022/12/30 04:10:40;;;;;;;22.65;4.68;;;5.20;99.90;;;;;;7370708;19;20374;-57
2022/12/30 04:13:06;;;;;;;17.15;4.82;;;5.20;99.90;;;;;;7370543;19;20033;-57
2022/12/30 04:15:33;;;;;;;17.63;4.95;;;5.20;99.90;;;;;;7371687;19;20074;-57
2022/12/30 04:17:59;;;;;;;18.73;4.93;;;5.10;99.90;;;;;;7372150;19;20022;-56
2022/12/30 04:20:25;;;;;;;23.58;5.05;;;5.10;99.90;;;;;;7370152;19;20022;-56
2022/12/30 04:22:56;;;;;;;22.38;5.43;;;5.20;99.90;;;;;;7369877;19;20384;-57
2022/12/30 04:25:23;;;;;;;22.98;5.03;;;5.10;99.90;;;;;;7362660;19;20628;-57
2022/12/30 04:27:49;;;;;;;16.30;4.82;;;5.10;99.90;;;;;;7371898;19;20019;-57
2022/12/30 04:30:16;;;;;;;19.63;4.53;;;5.10;99.90;;;;;;7369757;19;20019;-56
2022/12/30 04:32:42;;;;;;;25.02;6.28;;;5.00;99.90;;;;;;7371456;19;20467;-49
2022/12/30 04:35:09;;;;;;;19.08;4.97;;;5.00;99.90;;;;;;7373221;19;20022;-47
2022/12/30 04:37:35;;;;;;;15.77;4.10;;;5.10;99.90;;;;;;7370729;19;20025;-57
2022/12/30 04:40:01;;;;;;;18.23;5.15;;;5.10;99.90;;;;;;7367498;19;20018;-56
2022/12/30 04:42:27;;;;;;;14.75;4.95;;;5.00;99.90;;;;;;7374596;19;20577;-47
2022/12/30 04:44:54;;;;;;;19.85;4.50;;;5.00;99.90;;;;;;7367086;19;20403;-48
2022/12/30 04:47:20;;;;;;;18.58;5.70;;;5.00;99.90;;;;;;7372326;19;20047;-57
2022/12/30 04:49:46;;;;;;;23.65;5.15;;;5.00;99.90;;;;;;7369272;19;20545;-56
2022/12/30 04:52:13;;;;;;;15.38;4.70;;;4.90;99.90;;;;;;7372755;19;20675;-50
2022/12/30 04:54:39;;;;;;;20.40;4.80;;;4.90;99.90;;;;;;7368530;19;20022;-57
2022/12/30 04:57:06;;;;;;;14.57;4.57;;;4.90;99.90;;;;;;7366037;19;20025;-57
2022/12/30 04:59:32;;;;;;;19.17;5.32;;;4.90;99.90;;;;;;7370435;19;20022;-57
2022/12/30 05:01:58;;;;;;;16.42;4.72;;;4.90;99.90;;;;;;7370628;19;20026;-57
2022/12/30 05:04:25;;;;;;;16.92;4.90;;;4.90;99.90;;;;;;7373361;19;20105;-57
2022/12/30 05:06:52;;;;;;;19.02;4.68;;;4.90;99.90;;;;;;7373738;19;20434;-57
2022/12/30 05:09:18;;;;;;;22.35;4.80;;;4.90;99.90;;;;;;7373527;19;20019;-57
2022/12/30 05:11:45;;;;;;;18.65;4.80;;;4.90;99.90;;;;;;7379255;19;20019;-57
2022/12/30 05:14:11;;;;;;;12.90;4.22;;;4.90;99.90;;;;;;7374485;19;20047;-56
2022/12/30 05:16:38;;;;;;;16.65;5.18;;;4.90;99.90;;;;;;7379557;19;20023;-57
2022/12/30 05:19:05;;;;;;;13.68;4.22;;;4.90;99.90;;;;;;7375100;19;20019;-56
2022/12/30 05:21:31;;;;;;;21.25;4.43;;;4.90;99.90;;;;;;7379290;19;20029;-56
2022/12/30 05:26:42;;;;;;;14.23;4.57;;;4.80;99.90;;;;;;7375780;19;20054;-59
2022/12/30 05:29:08;;;;;;;15.65;4.18;;;4.80;99.90;;;;;;7375636;19;20018;-56
2022/12/30 05:31:35;;;;;;;11.20;4.18;;;4.80;99.90;;;;;;7372043;19;20727;-57
2022/12/30 05:34:03;;;;;;;15.00;4.60;;;4.80;99.90;;;;;;7368741;19;20097;-57
2022/12/30 05:36:29;;;;;;;16.65;4.15;;;4.80;99.90;;;;;;7370740;19;20524;-57
2022/12/30 05:38:55;;;;;;;14.77;3.83;;;4.70;99.90;;;;;;7367888;19;20032;-57
2022/12/30 05:41:22;;;;;;;19.88;4.45;;;4.70;99.90;;;;;;7367394;19;20465;-57
2022/12/30 05:43:49;;;;;;;17.00;4.20;;;4.80;99.90;;;;;;7369219;19;20106;-57
2022/12/30 05:46:15;;;;;;;15.20;3.78;;;4.70;99.90;;;;;;7371160;19;20498;-57
2022/12/30 05:48:42;;;;;;;15.02;4.50;;;4.70;99.90;;;;;;7370943;19;20018;-57
2022/12/30 05:51:08;;;;;;;17.35;3.60;;;4.70;99.90;;;;;;7370016;19;20074;-57
2022/12/30 05:53:34;;;;;;;19.52;4.05;;;4.70;99.90;;;;;;7363918;19;20529;-57
2022/12/30 05:56:02;;;;;;;15.55;4.35;;;4.70;99.90;;;;;;7371461;19;20025;-57
2022/12/30 05:58:29;;;;;;;17.45;4.38;;;4.70;99.90;;;;;;7365429;19;20018;-57
2022/12/30 06:00:56;;;;;;;20.13;4.97;;;4.70;99.90;;;;;;7369469;19;20018;-57
2022/12/30 06:03:23;;;;;;;20.00;4.72;;;4.70;99.90;;;;;;7367923;19;20025;-57
2022/12/30 06:05:58;;;;;;;15.77;5.95;;;4.80;99.90;;;;;;7369414;19;20018;-57
2022/12/30 06:08:25;;;;;;;12.07;4.50;;;4.80;99.90;;;;;;7370191;19;20022;-56
2022/12/30 06:18:41;;;;;;;20.70;4.68;;;4.70;99.90;;;;;;7369314;19;20007;-57
2022/12/30 06:21:07;;;;;;;18.02;3.80;;;4.70;99.90;;;;;;7368494;19;20457;-56
2022/12/30 06:23:34;;;;;;;16.98;4.20;;;4.70;99.90;;;;;;7372754;19;20118;-57
2022/12/30 06:26:00;;;;;;;16.13;4.13;;;4.60;99.90;;;;;;7369598;19;20019;-57
2022/12/30 06:28:29;;;;;;;15.55;3.67;;;4.70;99.90;;;;;;7365825;19;20026;-57
2022/12/30 06:30:55;;;;;;;23.88;4.40;;;4.70;99.90;;;;;;7365882;19;20045;-57
2022/12/30 06:33:23;;;;;;;18.58;4.13;;;4.70;99.90;;;;;;7367423;19;20018;-57
2022/12/30 06:35:50;;;;;;;20.25;4.70;;;4.80;99.90;;;;;;7366622;19;20029;-57
2022/12/30 06:38:16;;;;;;;14.55;4.43;;;4.70;99.90;;;;;;7366096;19;20015;-57
2022/12/30 06:40:44;;;;;;;16.90;4.55;;;4.70;99.90;;;;;;7366792;19;20030;-56
2022/12/30 06:43:11;;;;;;;18.60;4.50;;;4.70;99.90;;;;;;7369096;19;20134;-57
2022/12/30 06:45:38;;;;;;;20.42;4.80;;;4.70;99.90;;;;;;7370563;19;20105;-57
2022/12/30 06:48:04;;;;;;;22.63;4.65;;;4.60;99.90;;;;;;7363853;19;20260;-51
2022/12/30 06:50:31;;;;;;;13.63;4.50;;;4.60;99.90;;;;;;7368165;19;20018;-49
2022/12/30 06:52:58;;;;;;;15.80;3.88;;;4.60;99.90;;;;;;7365965;19;20022;-52
2022/12/30 06:55:24;;;;;;;20.95;4.13;;;4.60;99.90;;;;;;7366228;19;20185;-50
2022/12/30 06:57:50;;;;;;;22.90;3.95;;;4.50;99.90;;;;;;7368069;19;20022;-57
2022/12/30 07:00:18;;;;;;;23.58;4.63;;;4.50;99.90;;;;;;7362408;19;20486;-50
2022/12/30 07:02:45;;;;;;;15.52;4.30;;;4.50;99.90;;;;;;7363942;19;20485;-50
2022/12/30 07:05:11;;;;;;;16.85;4.63;;;4.50;99.90;;;;;;7362088;19;20798;-57
2022/12/30 07:07:40;;;;;;;18.30;4.50;;;4.50;99.90;;;;;;7367217;19;20110;-57
2022/12/30 07:10:07;;;;;;;16.17;3.83;;;4.40;99.90;;;;;;7365244;19;20473;-50
2022/12/30 07:12:33;;;;;;;17.95;3.80;;;4.50;99.90;;;;;;7365965;19;20018;-50
2022/12/30 07:15:00;;;;;;;17.20;3.70;;;4.50;99.90;;;;;;7361351;19;20054;-48
2022/12/30 07:17:26;;;;;;;21.00;4.88;;;4.50;99.90;;;;;;7363612;19;20438;-55
2022/12/30 07:19:52;;;;;;;19.83;4.47;;;4.60;99.90;;;;;;7364749;19;20469;-56
2022/12/30 07:22:19;;;;;;;21.33;3.72;;;4.60;99.90;;;;;;7367181;19;20006;-55
2022/12/30 07:24:46;;;;;;;12.82;3.92;;;4.60;99.90;;;;;;7367829;19;20023;-51
2022/12/30 07:27:12;;;;;;;16.05;3.50;;;4.60;99.90;;;;;;7364345;19;20039;-50
2022/12/30 07:29:39;;;;;;;18.45;4.40;;;4.70;99.90;;;;;;7365669;19;20493;-51
2022/12/30 07:32:07;;;;;;;16.85;4.45;;;4.70;99.90;;;;;;7365917;19;20465;-50
2022/12/30 07:34:34;;;;;;;15.05;3.95;;;4.80;99.90;;;;;;7367464;19;20481;-47
2022/12/30 07:37:04;;;;;;;16.17;3.90;;;4.70;99.90;;;;;;7361671;19;20026;-57
2022/12/30 07:39:31;;;;;;;18.88;3.97;;;4.80;99.90;;;;;;7362706;19;20469;-50
2022/12/30 07:41:58;;;;;;;14.65;3.92;;;4.80;99.90;;;;;;7365991;19;20474;-50
2022/12/30 07:44:24;;;;;;;16.23;4.60;;;4.80;99.90;;;;;;7364727;19;20488;-48
2022/12/30 07:46:50;;;;;;;18.08;4.63;;;4.80;99.90;;;;;;7369425;19;20018;-55
2022/12/30 07:49:17;;;;;;;17.35;4.70;;;4.70;99.90;;;;;;7368574;19;20410;-57
2022/12/30 07:51:44;;;;;;;14.05;3.75;;;4.70;99.90;;;;;;7371493;19;20576;-55
2022/12/30 07:54:10;;;;;;;16.58;4.15;;;4.70;99.90;;;;;;7374557;19;20078;-58
2022/12/30 07:56:37;;;;;;;16.70;4.60;;;4.70;99.90;;;;;;7371653;19;20014;-57
2022/12/30 07:59:03;;;;;;;14.65;3.97;;;4.70;99.90;;;;;;7370174;19;20022;-52
2022/12/30 08:01:30;;;;;;;16.58;4.65;;;4.70;99.90;;;;;;7363810;19;20121;-53
2022/12/30 08:03:56;;;;;;;16.40;4.65;;;4.70;99.90;;;;;;7367416;19;20389;-49
2022/12/30 08:06:27;;;;;;;17.13;4.63;;;4.70;99.90;;;;;;7363913;19;20517;-50
2022/12/30 08:08:55;;;;;;;15.93;4.10;;;4.70;99.90;;;;;;7367440;19;20045;-57
2022/12/30 08:11:22;;;;;;;18.35;5.32;;;4.80;99.90;;;;;;7376347;19;20033;-51
2022/12/30 08:13:48;;;;;;;13.05;4.72;;;4.80;99.90;;;;;;7365794;19;20093;-50
2022/12/30 08:16:16;;;;;;;15.68;4.32;;;4.90;99.90;;;;;;7365511;19;20018;-58
2022/12/30 08:18:43;;;;;;;17.88;4.00;;;4.80;99.90;;;;;;7373729;19;20021;-56
2022/12/30 08:21:16;;;;;;;19.90;4.97;;;4.80;99.90;;;;;;7368329;19;20014;-51
2022/12/30 08:23:44;;;;;;;20.02;4.68;;;4.90;99.90;;;;;;7361409;19;20023;-52
2022/12/30 08:26:17;;;;;;;17.75;4.10;;;4.90;99.90;;;;;;7365094;19;20077;-51
2022/12/30 08:28:43;;;;;;;20.00;4.70;;;4.90;99.90;;;;;;7367603;19;20038;-51
2022/12/30 08:31:15;;;;;;;15.52;4.00;;;5.00;99.90;;;;;;7365443;19;20014;-51
2022/12/30 08:33:42;;;;;;;17.80;3.67;;;5.00;99.90;;;;;;7368672;19;20041;-56
2022/12/30 08:36:11;;;;;;;20.40;4.70;;;5.10;99.90;;;;;;7372987;19;20015;-51
2022/12/30 08:38:41;;;;;;;13.25;3.83;;;5.10;99.90;;;;;;7357338;19;20035;-50
2022/12/30 08:41:12;;;;;;;16.70;4.50;;;5.10;99.90;;;;;;7380677;19;20014;-57
2022/12/30 08:43:39;;;;;;;14.45;4.28;;;5.20;99.90;;;;;;7390312;19;20480;-57
2022/12/30 08:46:05;;;;;;;10.27;3.58;;;5.20;99.90;;;;;;7387843;19;20018;-56
2022/12/30 08:48:31;;;;;;;15.27;4.03;;;5.20;99.90;;;;;;7386958;19;20011;-57
2022/12/30 08:50:59;;;;;;;18.90;4.22;;;5.30;99.90;;;;;;7365369;19;20576;-51
2022/12/30 08:53:25;;;;;;;13.00;4.10;;;5.30;99.90;;;;;;7380665;19;20127;-57
2022/12/30 08:56:04;;;;;;;16.02;4.75;;;5.40;99.90;;;;;;7381729;19;20015;-57
2022/12/30 08:58:37;;;;;;;13.60;4.10;;;5.40;99.90;;;;;;7379543;19;20018;-57
2022/12/30 09:01:19;;;;;;;14.38;4.45;;;5.50;99.90;;;;;;7373781;19;20021;-57
2022/12/30 09:03:50;;;;;;;15.40;3.80;;;5.50;99.90;;;;;;7377267;19;20022;-59
2022/12/30 09:06:18;;;;;;;17.73;4.10;;;5.60;99.90;;;;;;7376414;19;20485;-57
2022/12/30 09:08:45;;;;;;;17.05;4.25;;;5.60;99.90;;;;;;7376298;19;20022;-57
2022/12/30 09:11:28;;;;;;;14.43;4.30;;;5.70;99.90;;;;;;7375522;19;20627;-57
2022/12/30 09:13:55;;;;;;;13.10;4.25;;;5.70;99.90;;;;;;7373575;19;20057;-57
2022/12/30 09:16:22;;;;;;;15.45;4.03;;;5.70;99.90;;;;;;7377506;19;20018;-57
2022/12/30 09:18:50;;;;;;;15.20;4.75;;;5.70;99.90;;;;;;7377553;19;20046;-57
2022/12/30 09:21:17;;;;;;;11.73;3.63;;;5.80;99.90;;;;;;7377594;19;20377;-57
2022/12/30 09:23:43;;;;;;;12.73;4.25;;;5.80;99.90;;;;;;7377978;19;20110;-57
2022/12/30 09:26:14;;;;;;;13.50;3.65;;;5.90;99.90;;;;;;7380410;19;20011;-57
2022/12/30 09:28:41;;;;;;;13.30;4.00;;;5.90;99.90;;;;;;7379681;19;20019;-57
2022/12/30 09:31:07;;;;;;;17.65;4.70;;;5.90;99.90;;;;;;7376062;19;20025;-57
2022/12/30 09:33:34;;;;;;;16.42;3.95;;;6.00;99.90;;;;;;7376554;19;20011;-57
2022/12/30 09:36:00;;;;;;;18.45;4.25;;;6.00;99.90;;;;;;7376177;19;20010;-57
2022/12/30 09:38:26;;;;;;;12.02;3.60;;;6.10;99.90;;;;;;7365859;19;20401;-49
2022/12/30 09:40:58;;;;;;;14.55;4.00;;;6.10;99.90;;;;;;7364905;19;20502;-51
2022/12/30 09:43:43;;;;;;;14.75;3.38;;;6.10;99.90;;;;;;7365363;19;20023;-49
2022/12/30 09:46:37;;;;;;;13.90;4.07;;;6.10;99.90;;;;;;7361488;19;20018;-51
2022/12/30 09:49:30;;;;;;;10.20;3.33;;;6.20;99.90;;;;;;7375695;19;20482;-57
2022/12/30 09:52:12;;;;;;;13.50;3.35;;;6.30;99.90;;;;;;7383945;19;20014;-57
2022/12/30 09:54:49;;;;;;;16.08;3.70;;;6.30;99.90;;;;;;7383658;19;20090;-57
2022/12/30 09:57:32;;;;;;;8.80;3.00;;;6.40;99.90;;;;;;7378852;19;20011;-58
2022/12/30 10:00:17;;;;;;;14.85;3.45;;;6.50;99.90;;;;;;7382245;19;20466;-57
2022/12/30 10:03:05;;;;;;;9.23;3.10;;;6.50;99.90;;;;;;7381008;19;20573;-57
2022/12/30 10:06:16;;;;;;;11.77;3.88;;;6.50;99.90;;;;;;7369460;19;20018;-51
2022/12/30 10:09:05;;;;;;;8.90;3.13;;;6.60;99.90;;;;;;7368187;19;20023;-50
2022/12/30 10:11:47;;;;;;;11.77;2.88;;;6.70;99.90;;;;;;7381895;19;20051;-57
2022/12/30 10:14:49;;;;;;;11.90;2.95;;;6.70;99.90;;;;;;7378673;19;20014;-59
2022/12/30 10:17:28;;;;;;;15.48;3.70;;;6.70;99.90;;;;;;7378274;19;20014;-57
2022/12/30 10:20:00;;;;;;;13.00;3.53;;;6.80;99.90;;;;;;7380547;19;20401;-57
2022/12/30 10:22:40;;;;;;;9.30;2.97;;;6.80;99.90;;;;;;7375877;19;20028;-57
2022/12/30 10:25:09;;;;;;;12.00;3.33;;;6.90;99.90;;;;;;7375874;19;20497;-58
2022/12/30 10:27:47;;;;;;;13.70;5.43;;;7.00;99.90;;;;;;7379130;19;20021;-57
2022/12/30 10:30:23;;;;;;;11.57;3.28;;;7.00;99.90;;;;;;7380687;19;20038;-57
2022/12/30 10:33:02;;;;;;;9.43;3.42;;;7.10;99.90;;;;;;7377543;19;20014;-54
2022/12/30 10:35:33;;;;;;;10.93;2.92;;;7.20;99.90;;;;;;7373571;19;20011;-57
2022/12/30 10:38:21;;;;;;;11.15;3.08;;;7.30;99.90;;;;;;7371340;19;20015;-51
2022/12/30 10:40:56;;;;;;;11.63;3.28;;;7.40;99.90;;;;;;7372408;19;20802;-51
2022/12/30 10:43:44;;;;;;;12.68;6.63;;;7.50;99.90;;;;;;7372162;19;20018;-50
2022/12/30 10:46:22;;;;;;;11.63;3.38;;;7.50;99.90;;;;;;7367488;19;20390;-49
2022/12/30 10:48:58;;;;;;;11.13;3.83;;;7.70;99.90;;;;;;7368874;19;20031;-50
2022/12/30 10:51:25;;;;;;;9.73;2.80;;;7.70;99.90;;;;;;7361950;19;20046;-56
2022/12/30 10:53:53;;;;;;;7.40;2.15;;;7.70;99.90;;;;;;7380496;19;20014;-57
2022/12/30 10:56:26;;;;;;;6.00;2.00;;;7.70;99.90;;;;;;7376246;19;20490;-57
2022/12/30 10:58:57;;;;;;;9.75;2.45;;;7.80;99.90;;;;;;7377806;19;20038;-57
2022/12/30 11:01:29;;;;;;;8.60;2.42;;;7.80;99.90;;;;;;7374201;19;20035;-57
2022/12/30 11:03:58;;;;;;;10.57;2.65;;;7.70;99.90;;;;;;7376170;19;20021;-57
2022/12/30 11:06:30;;;;;;;7.50;2.20;;;7.70;99.90;;;;;;7368700;19;20014;-57
2022/12/30 11:09:12;;;;;;;6.70;2.53;;;7.70;99.90;;;;;;7372706;19;20010;-57
2022/12/30 11:14:42;;;;;;;6.40;1.95;;;7.80;99.90;;;;;;7365315;19;20867;-58
2022/12/30 11:17:22;;;;;;;7.20;2.30;;;7.80;99.90;;;;;;7368325;19;20022;-57
2022/12/30 11:19:53;;;;;;;7.68;2.65;;;7.80;99.90;;;;;;7366033;19;20015;-57
2022/12/30 11:22:22;;;;;;;7.72;2.22;;;7.80;99.90;;;;;;7368085;19;20528;-57
2022/12/30 11:24:57;;;;;;;8.73;2.65;;;7.90;99.90;;;;;;7365236;19;20022;-57
2022/12/30 11:27:34;;;;;;;10.07;2.63;;;8.00;99.90;;;;;;7366037;19;20014;-51
2022/12/30 11:30:01;;;;;;;9.60;2.58;;;8.00;99.90;;;;;;7370244;19;20086;-58
2022/12/30 11:32:27;;;;;;;10.88;2.80;;;8.00;99.90;;;;;;7369966;19;20481;-57
2022/12/30 11:34:53;;;;;;;6.38;1.80;;;8.10;99.90;;;;;;7370094;19;20025;-49
2022/12/30 11:37:35;;;;;;;6.80;2.00;;;8.10;99.90;;;;;;7366229;19;20025;-48
2022/12/30 11:40:29;;;;;;;6.75;1.92;;;8.10;99.90;;;;;;7364124;19;20022;-47
2022/12/30 11:43:19;;;;;;;8.63;2.10;;;8.10;99.90;;;;;;7371364;19;20018;-57
2022/12/30 11:46:07;;;;;;;7.43;2.40;;;8.10;99.90;;;;;;7368944;19;20015;-57
2022/12/30 11:49:03;;;;;;;7.82;3.03;;;8.20;99.90;;;;;;7369490;19;20447;-47
2022/12/30 11:51:33;;;;;;;7.05;1.92;;;8.20;99.90;;;;;;7368229;19;20502;-58
2022/12/30 11:54:10;;;;;;;7.53;2.22;;;8.20;99.90;;;;;;7368169;19;20097;-57
2022/12/30 11:56:51;;;;;;;10.43;2.63;;;8.20;99.90;;;;;;7372743;19;20018;-51
2022/12/30 11:59:21;;;;;;;5.97;2.20;;;8.30;99.90;;;;;;7369475;19;20033;-57
2022/12/30 12:01:51;;;;;;;5.70;2.05;;;8.30;99.90;;;;;;7372535;19;20023;-57
2022/12/30 12:04:35;;;;;;;6.05;1.90;;;8.30;99.90;;;;;;7367317;19;20019;-57
2022/12/30 12:07:20;;;;;;;8.73;2.60;;;8.30;99.90;;;;;;7367844;19;20366;-50
2022/12/30 12:10:04;;;;;;;5.32;2.42;;;8.30;99.90;;;;;;7367913;19;20019;-51
2022/12/30 12:12:48;;;;;;;8.13;2.03;;;8.40;99.90;;;;;;7366597;19;20024;-57
2022/12/30 12:15:38;;;;;;;7.22;2.22;;;8.40;99.90;;;;;;7366835;19;20040;-57
2022/12/30 12:18:14;;;;;;;6.10;1.85;;;8.40;99.90;;;;;;7364290;19;20612;-57
2022/12/30 12:20:52;;;;;;;3.97;1.77;;;8.40;99.90;;;;;;7368049;19;20492;-57
2022/12/30 12:23:41;;;;;;;6.50;2.15;;;8.50;99.90;;;;;;7364427;19;20025;-57
2022/12/30 12:26:26;;;;;;;5.72;1.70;;;8.50;99.90;;;;;;7366877;19;20057;-57
2022/12/30 12:28:55;;;;;;;6.78;2.00;;;8.50;99.90;;;;;;7368523;19;20093;-50
2022/12/30 12:31:30;;;;;;;9.02;2.47;;;8.50;99.90;;;;;;7363687;19;20356;-50
2022/12/30 12:34:11;;;;;;;7.72;2.17;;;8.50;99.90;;;;;;7367171;19;20055;-50
2022/12/30 12:36:37;;;;;;;8.75;2.53;;;8.60;99.90;;;;;;7365077;19;20483;-51
2022/12/30 12:39:10;;;;;;;8.73;2.72;;;8.60;99.90;;;;;;7366768;19;20022;-51
2022/12/30 12:41:52;;;;;;;7.05;1.95;;;8.60;99.90;;;;;;7364940;19;20023;-52
2022/12/30 12:44:38;;;;;;;5.97;2.22;;;8.70;99.90;;;;;;7360352;19;20061;-52
2022/12/30 12:47:19;;;;;;;9.60;2.58;;;8.70;99.90;;;;;;7364750;19;20037;-50
2022/12/30 12:50:17;;;;;;;6.97;2.20;;;8.80;99.90;;;;;;7361306;19;20029;-57
2022/12/30 12:53:09;;;;;;;9.23;2.13;;;8.80;99.90;;;;;;7367601;19;20041;-57
2022/12/30 12:55:49;;;;;;;;;;;8.80;99.90;;;;;;7363308;19;20314;-57
2022/12/30 12:58:28;;;;;;;7.15;2.38;;;8.80;99.90;;;;;;7365816;19;19926;-57
2022/12/30 13:01:18;;;;;;;6.32;2.35;;;8.90;99.90;;;;;;7368728;19;20543;-57
2022/12/30 13:04:22;;;;;;;7.72;2.30;;;8.90;99.90;;;;;;7366148;19;20041;-57
2022/12/30 13:06:54;;;;;;;5.93;2.25;;;8.90;99.90;;;;;;7360116;19;20023;-57
2022/12/30 13:09:38;;;;;;;7.45;2.10;;;8.90;99.90;;;;;;7366459;19;20376;-57
2022/12/30 13:12:46;;;;;;;9.15;1.60;;;9.00;99.90;;;;;;7365300;19;20018;-51
2022/12/30 13:15:26;;;;;;;8.50;1.70;;;9.00;99.90;;;;;;7360834;19;20093;-47
2022/12/30 13:17:56;;;;;;;6.03;1.70;;;9.00;99.90;;;;;;7361209;19;20493;-48
2022/12/30 13:20:45;;;;;;;7.65;1.55;;;9.10;99.90;;;;;;7361508;19;20014;-52
2022/12/30 13:23:14;;;;;;;4.63;1.30;;;9.10;99.90;;;;;;7363143;19;20438;-48
2022/12/30 13:25:44;;;;;;;5.50;1.52;;;9.10;99.90;;;;;;7367309;19;20018;-50
2022/12/30 13:28:24;;;;;;;9.05;2.05;;;9.10;99.90;;;;;;7369367;19;20017;-52
2022/12/30 13:31:18;;;;;;;6.50;1.63;;;9.20;99.90;;;;;;7369863;19;20526;-49
2022/12/30 13:34:06;;;;;;;5.35;1.73;;;9.20;99.90;;;;;;7371502;19;20015;-51
2022/12/30 13:36:38;;;;;;;6.28;1.80;;;9.20;99.90;;;;;;7365458;19;20045;-51
2022/12/30 13:39:10;;;;;;;6.70;1.60;;;9.20;99.90;;;;;;7368920;19;20018;-48
2022/12/30 13:42:15;;;;;;;8.13;1.90;;;9.20;99.90;;;;;;7372152;19;20369;-57
2022/12/30 13:44:44;;;;;;;6.88;1.40;;;9.20;99.90;;;;;;7369105;19;20476;-57
2022/12/30 13:47:40;;;;;;;4.80;1.40;;;9.20;99.90;;;;;;7372108;19;20026;-57
2022/12/30 13:50:25;;;;;;;7.65;1.83;;;9.30;99.90;;;;;;7368646;19;20031;-57
2022/12/30 13:52:55;;;;;;;5.47;1.60;;;9.30;99.90;;;;;;7371061;19;20041;-57
2022/12/30 13:55:23;;;;;;;5.85;1.30;;;9.30;99.90;;;;;;7370932;19;20255;-57
2022/12/30 13:57:58;;;;;;;7.43;1.73;;;9.40;99.90;;;;;;7367960;19;20019;-57
2022/12/30 14:00:25;;;;;;;6.13;1.40;;;9.40;99.90;;;;;;7371773;19;20486;-51
2022/12/30 14:02:59;;;;;;;6.88;1.75;;;9.50;99.90;;;;;;7369876;19;20015;-51
2022/12/30 14:05:54;;;;;;;7.53;1.65;;;9.40;99.90;;;;;;7369775;19;20042;-51
2022/12/30 14:08:21;;;;;;;5.70;1.60;;;9.50;99.90;;;;;;7367208;19;20481;-52
2022/12/30 14:10:59;;;;;;;5.93;1.52;;;9.50;99.90;;;;;;7366536;19;20116;-51
2022/12/30 14:13:25;;;;;;;5.20;1.70;;;9.50;99.90;;;;;;7369927;19;20034;-51
2022/12/30 14:16:03;;;;;;;7.63;1.45;;;9.50;99.90;;;;;;7369938;19;20049;-51